createdAt,value
2023-05-14T00:00:46.557Z,96.73
2023-05-14T00:01:46.555Z,97.45
2023-05-14T00:02:46.647Z,95.70
2023-05-14T00:03:46.614Z,93.27
2023-05-14T00:04:46.534Z,92.19
2023-05-14T00:05:46.556Z,91.47
2023-05-14T00:06:46.516Z,90.29
2023-05-14T00:07:46.491Z,89.52
2023-05-14T00:08:46.486Z,89.52
2023-05-14T00:09:46.480Z,88.34
2023-05-14T00:10:46.463Z,87.93
2023-05-14T00:11:46.478Z,87.68
2023-05-14T00:12:46.439Z,88.92
2023-05-14T00:13:46.445Z,87.79
2023-05-14T00:14:46.429Z,87.07
2023-05-14T00:15:46.453Z,86.76
2023-05-14T00:16:46.403Z,86.76
2023-05-14T00:17:46.532Z,89.54
2023-05-14T00:18:46.407Z,93.62
2023-05-14T00:19:46.369Z,94.34
2023-05-14T00:20:46.373Z,97.17
2023-05-14T00:21:46.354Z,97.84
2023-05-14T00:22:46.337Z,99.27
2023-05-14T00:23:46.362Z,99.99
2023-05-14T00:24:46.325Z,99.99
2023-05-14T00:25:46.315Z,99.99
2023-05-14T00:26:46.318Z,99.99
2023-05-14T00:27:46.285Z,99.99
2023-05-14T00:28:46.273Z,99.99
2023-05-14T00:29:46.306Z,99.43
2023-05-14T00:30:46.257Z,98.91
2023-05-14T00:31:46.395Z,97.41
2023-05-14T00:32:46.278Z,96.69
2023-05-14T00:33:46.257Z,97.52
2023-05-14T00:34:46.227Z,96.79
2023-05-14T00:35:46.252Z,96.23
2023-05-14T00:36:46.197Z,97.06
2023-05-14T00:37:46.191Z,96.33
2023-05-14T00:38:46.185Z,97.57
2023-05-14T00:39:46.176Z,95.61
2023-05-14T00:40:46.160Z,98.09
2023-05-14T00:41:46.170Z,98.30
2023-05-14T00:42:46.141Z,97.57
2023-05-14T00:43:46.130Z,96.23
2023-05-14T00:44:46.135Z,95.92
2023-05-14T00:45:46.119Z,95.98
2023-05-14T00:46:46.160Z,96.08
2023-05-14T00:47:46.133Z,96.19
2023-05-14T00:48:46.102Z,93.91
2023-05-14T00:49:46.073Z,94.59
2023-05-14T00:50:46.059Z,96.45
2023-05-14T00:51:46.056Z,95.10
2023-05-14T00:52:47.869Z,95.27
2023-05-14T00:53:46.051Z,94.54
2023-05-14T00:54:46.027Z,95.27
2023-05-14T00:55:46.016Z,95.53
2023-05-14T00:56:45.996Z,95.95
2023-05-14T00:57:45.997Z,95.74
2023-05-14T00:58:46.007Z,94.09
2023-05-14T00:59:46.184Z,94.92
2023-05-14T01:00:45.995Z,95.84
2023-05-14T01:01:45.959Z,94.40
2023-05-14T01:02:45.969Z,95.95
2023-05-14T01:03:46.134Z,95.02
2023-05-14T01:04:45.925Z,94.92
2023-05-14T01:05:45.933Z,92.23
2023-05-14T01:06:45.906Z,94.81
2023-05-14T01:07:45.887Z,95.43
2023-05-14T01:08:45.878Z,95.27
2023-05-14T01:09:45.897Z,93.20
2023-05-14T01:10:45.854Z,95.94
2023-05-14T01:11:45.905Z,97.38
2023-05-14T01:12:45.831Z,98.97
2023-05-14T01:13:45.825Z,98.46
2023-05-14T01:14:45.817Z,97.78
2023-05-14T01:15:45.808Z,96.02
2023-05-14T01:16:45.849Z,97.26
2023-05-14T01:17:45.844Z,95.61
2023-05-14T01:18:45.803Z,95.25
2023-05-14T01:19:45.767Z,97.01
2023-05-14T01:20:45.744Z,96.03
2023-05-14T01:21:45.739Z,99.04
2023-05-14T01:22:45.729Z,99.55
2023-05-14T01:23:45.836Z,97.23
2023-05-14T01:24:45.707Z,96.41
2023-05-14T01:25:45.694Z,96.72
2023-05-14T01:26:45.678Z,96.30
2023-05-14T01:27:45.681Z,96.61
2023-05-14T01:28:45.654Z,96.72
2023-05-14T01:29:45.688Z,98.53
2023-05-14T01:30:45.643Z,99.40
2023-05-14T01:31:45.709Z,98.88
2023-05-14T01:32:45.647Z,99.35
2023-05-14T01:33:45.618Z,97.96
2023-05-14T01:34:45.595Z,98.16
2023-05-14T01:35:45.661Z,98.01
2023-05-14T01:36:45.587Z,97.60
2023-05-14T01:37:45.566Z,98.53
2023-05-14T01:38:45.649Z,97.39
2023-05-14T01:39:45.567Z,96.36
2023-05-14T01:40:45.541Z,95.95
2023-05-14T01:41:45.564Z,97.91
2023-05-14T01:42:45.527Z,99.25
2023-05-14T01:43:45.507Z,98.63
2023-05-14T01:44:45.516Z,97.50
2023-05-14T01:45:45.501Z,97.91
2023-05-14T01:46:45.486Z,96.05
2023-05-14T01:47:45.562Z,98.43
2023-05-14T01:48:45.476Z,97.39
2023-05-14T01:49:45.450Z,95.74
2023-05-14T01:50:45.437Z,92.74
2023-05-14T01:51:45.440Z,91.09
2023-05-14T01:52:45.416Z,90.58
2023-05-14T01:53:45.452Z,91.40
2023-05-14T01:54:45.400Z,96.26
2023-05-14T01:55:45.393Z,96.82
2023-05-14T01:56:45.377Z,94.85
2023-05-14T01:57:45.322Z,95.06
2023-05-14T01:58:45.308Z,95.27
2023-05-14T01:59:45.319Z,94.48
2023-05-14T02:00:45.287Z,95.42
2023-05-14T02:01:45.345Z,97.89
2023-05-14T02:02:45.301Z,98.83
2023-05-14T02:03:45.311Z,96.24
2023-05-14T02:04:45.249Z,98.87
2023-05-14T02:05:45.268Z,99.18
2023-05-14T02:06:45.238Z,99.99
2023-05-14T02:07:45.230Z,99.99
2023-05-14T02:08:45.207Z,99.99
2023-05-14T02:09:45.200Z,99.99
2023-05-14T02:10:45.175Z,99.95
2023-05-14T02:11:45.200Z,99.74
2023-05-14T02:12:45.162Z,99.99
2023-05-14T02:13:45.162Z,99.99
2023-05-14T02:14:45.140Z,99.99
2023-05-14T02:15:45.205Z,99.99
2023-05-14T02:16:45.123Z,99.99
2023-05-14T02:17:45.187Z,99.99
2023-05-14T02:18:45.162Z,99.99
2023-05-14T02:19:45.102Z,99.99
2023-05-14T02:20:45.112Z,99.99
2023-05-14T02:21:45.074Z,99.99
2023-05-14T02:22:45.059Z,99.99
2023-05-14T02:23:45.074Z,99.99
2023-05-14T02:24:45.054Z,99.99
2023-05-14T02:25:45.033Z,99.99
2023-05-14T02:26:45.024Z,99.99
2023-05-14T02:27:45.012Z,99.99
2023-05-14T02:28:44.999Z,99.99
2023-05-14T02:29:45.036Z,99.99
2023-05-14T02:30:44.986Z,99.99
2023-05-14T02:31:45.008Z,99.99
2023-05-14T02:32:45.059Z,99.99
2023-05-14T02:33:44.956Z,99.99
2023-05-14T02:34:44.933Z,99.99
2023-05-14T02:35:44.945Z,99.17
2023-05-14T02:36:44.920Z,98.55
2023-05-14T02:37:44.899Z,97.57
2023-05-14T02:38:44.897Z,98.19
2023-05-14T02:39:44.903Z,99.91
2023-05-14T02:40:44.876Z,98.25
2023-05-14T02:41:44.894Z,99.39
2023-05-14T02:42:44.866Z,96.45
2023-05-14T02:43:44.854Z,96.86
2023-05-14T02:44:44.832Z,94.90
2023-05-14T02:45:44.860Z,98.62
2023-05-14T02:46:44.829Z,98.57
2023-05-14T02:47:44.848Z,98.78
2023-05-14T02:48:44.801Z,97.85
2023-05-14T02:49:44.781Z,98.27
2023-05-14T02:50:44.766Z,97.85
2023-05-14T02:51:44.789Z,98.37
2023-05-14T02:52:44.759Z,97.44
2023-05-14T02:53:44.780Z,97.96
2023-05-14T02:54:44.732Z,95.99
2023-05-14T02:55:44.727Z,94.75
2023-05-14T02:56:44.711Z,93.10
2023-05-14T02:57:44.712Z,95.32
2023-05-14T02:58:44.694Z,94.19
2023-05-14T02:59:44.743Z,95.32
2023-05-14T03:00:44.702Z,97.60
2023-05-14T03:01:44.696Z,97.29
2023-05-14T03:02:44.776Z,95.53
2023-05-14T03:03:44.645Z,92.64
2023-05-14T03:04:44.649Z,93.78
2023-05-14T03:05:44.645Z,92.13
2023-05-14T03:06:44.617Z,96.15
2023-05-14T03:07:44.616Z,97.08
2023-05-14T03:08:44.593Z,97.71
2023-05-14T03:09:44.588Z,97.29
2023-05-14T03:10:44.575Z,98.63
2023-05-14T03:11:44.595Z,99.98
2023-05-14T03:12:44.557Z,99.99
2023-05-14T03:13:44.543Z,99.46
2023-05-14T03:14:44.534Z,96.56
2023-05-14T03:15:44.566Z,96.21
2023-05-14T03:16:44.590Z,94.77
2023-05-14T03:17:44.553Z,94.04
2023-05-14T03:18:44.514Z,95.70
2023-05-14T03:19:44.493Z,93.32
2023-05-14T03:20:44.476Z,94.56
2023-05-14T03:21:44.475Z,93.12
2023-05-14T03:22:44.445Z,91.52
2023-05-14T03:23:44.472Z,95.34
2023-05-14T03:24:44.440Z,97.09
2023-05-14T03:25:44.423Z,95.86
2023-05-14T03:26:44.413Z,93.59
2023-05-14T03:27:44.405Z,94.82
2023-05-14T03:28:44.399Z,95.03
2023-05-14T03:29:44.409Z,96.37
2023-05-14T03:30:44.487Z,94.21
2023-05-14T03:31:44.371Z,96.17
2023-05-14T03:32:44.377Z,96.58
2023-05-14T03:33:44.334Z,94.52
2023-05-14T03:34:44.330Z,94.21
2023-05-14T03:35:44.345Z,95.03
2023-05-14T03:36:44.314Z,95.76
2023-05-14T03:37:44.313Z,97.72
2023-05-14T03:38:44.282Z,97.72
2023-05-14T03:39:44.290Z,98.65
2023-05-14T03:40:44.276Z,97.72
2023-05-14T03:41:44.290Z,95.28
2023-05-14T03:42:44.246Z,93.53
2023-05-14T03:43:44.239Z,96.89
2023-05-14T03:44:44.222Z,96.99
2023-05-14T03:45:44.238Z,92.86
2023-05-14T03:46:44.207Z,93.28
2023-05-14T03:47:44.286Z,92.86
2023-05-14T03:48:44.251Z,93.79
2023-05-14T03:49:44.178Z,91.32
2023-05-14T03:50:44.165Z,91.01
2023-05-14T03:51:44.158Z,90.91
2023-05-14T03:52:44.164Z,94.31
2023-05-14T03:53:44.358Z,91.32
2023-05-14T03:54:44.149Z,92.35
2023-05-14T03:55:44.122Z,91.01
2023-05-14T03:56:44.105Z,90.80
2023-05-14T03:57:44.094Z,94.52
2023-05-14T03:58:44.088Z,96.27
2023-05-14T03:59:44.109Z,97.20
2023-05-14T04:00:44.070Z,95.96
2023-05-14T04:01:44.063Z,94.72
2023-05-14T04:02:44.111Z,93.07
2023-05-14T04:03:44.216Z,95.76
2023-05-14T04:04:44.082Z,97.92
2023-05-14T04:05:44.049Z,99.47
2023-05-14T04:06:44.025Z,96.89
2023-05-14T04:07:43.994Z,96.79
2023-05-14T04:08:43.998Z,98.75
2023-05-14T04:09:43.979Z,97.61
2023-05-14T04:10:43.968Z,97.20
2023-05-14T04:11:44.758Z,99.22
2023-05-14T04:12:43.948Z,96.44
2023-05-14T04:13:43.939Z,98.91
2023-05-14T04:14:43.939Z,98.91
2023-05-14T04:15:43.910Z,96.02
2023-05-14T04:16:43.998Z,98.29
2023-05-14T04:17:43.973Z,98.70
2023-05-14T04:18:43.950Z,99.38
2023-05-14T04:19:43.875Z,99.07
2023-05-14T04:20:43.870Z,98.24
2023-05-14T04:21:43.864Z,96.39
2023-05-14T04:22:43.860Z,97.89
2023-05-14T04:23:43.872Z,97.17
2023-05-14T04:24:43.825Z,97.17
2023-05-14T04:25:43.815Z,98.10
2023-05-14T04:26:43.804Z,93.98
2023-05-14T04:27:43.805Z,97.89
2023-05-14T04:28:43.781Z,96.45
2023-05-14T04:29:43.785Z,98.25
2023-05-14T04:30:43.765Z,96.41
2023-05-14T04:31:43.762Z,97.53
2023-05-14T04:32:43.772Z,94.34
2023-05-14T04:33:43.732Z,90.22
2023-05-14T04:34:43.722Z,89.61
2023-05-14T04:35:43.735Z,89.67
2023-05-14T04:36:43.694Z,91.21
2023-05-14T04:37:43.682Z,93.48
2023-05-14T04:38:43.675Z,90.96
2023-05-14T04:39:43.712Z,90.96
2023-05-14T04:40:43.659Z,92.50
2023-05-14T04:41:43.673Z,90.66
2023-05-14T04:42:43.631Z,90.24
2023-05-14T04:43:43.615Z,89.89
2023-05-14T04:44:43.613Z,91.02
2023-05-14T04:45:43.610Z,92.73
2023-05-14T04:46:43.594Z,92.79
2023-05-14T04:47:43.654Z,93.98
2023-05-14T04:48:43.569Z,93.16
2023-05-14T04:49:43.571Z,91.63
2023-05-14T04:50:43.559Z,90.97
2023-05-14T04:51:43.550Z,88.43
2023-05-14T04:52:43.535Z,89.04
2023-05-14T04:53:43.731Z,87.61
2023-05-14T04:54:43.565Z,85.05
2023-05-14T04:55:43.492Z,84.68
2023-05-14T04:56:43.502Z,82.83
2023-05-14T04:57:43.473Z,84.99
2023-05-14T04:58:43.479Z,86.22
2023-05-14T04:59:43.484Z,87.76
2023-05-14T05:00:43.447Z,88.78
2023-05-14T05:01:43.568Z,88.06
2023-05-14T05:02:43.464Z,89.60
2023-05-14T05:03:43.506Z,89.50
2023-05-14T05:04:43.412Z,89.19
2023-05-14T05:05:43.427Z,89.81
2023-05-14T05:06:43.383Z,89.25
2023-05-14T05:07:43.382Z,88.74
2023-05-14T05:08:43.379Z,88.29
2023-05-14T05:09:43.352Z,88.29
2023-05-14T05:10:43.352Z,86.98
2023-05-14T05:11:43.366Z,86.02
2023-05-14T05:12:43.335Z,85.16
2023-05-14T05:13:43.330Z,84.50
2023-05-14T05:14:43.339Z,84.26
2023-05-14T05:15:43.329Z,82.63
2023-05-14T05:16:43.287Z,82.36
2023-05-14T05:17:43.347Z,83.38
2023-05-14T05:18:43.338Z,82.97
2023-05-14T05:19:44.426Z,82.46
2023-05-14T05:20:43.250Z,80.79
2023-05-14T05:21:43.239Z,81.10
2023-05-14T05:22:43.235Z,81.37
2023-05-14T05:23:43.240Z,80.20
2023-05-14T05:24:43.220Z,80.51
2023-05-14T05:25:43.202Z,79.49
2023-05-14T05:26:43.190Z,79.86
2023-05-14T05:27:43.173Z,78.39
2023-05-14T05:28:43.171Z,77.27
2023-05-14T05:29:43.234Z,78.70
2023-05-14T05:30:43.150Z,78.46
2023-05-14T05:31:43.184Z,76.69
2023-05-14T05:32:43.179Z,76.76
2023-05-14T05:33:43.123Z,77.17
2023-05-14T05:34:43.106Z,74.21
2023-05-14T05:35:43.118Z,77.37
2023-05-14T05:36:43.094Z,76.04
2023-05-14T05:37:43.097Z,75.20
2023-05-14T05:38:43.080Z,74.01
2023-05-14T05:39:43.062Z,75.13
2023-05-14T05:40:43.061Z,75.43
2023-05-14T05:41:43.073Z,73.71
2023-05-14T05:42:43.027Z,75.43
2023-05-14T05:43:43.005Z,75.33
2023-05-14T05:44:43.003Z,75.47
2023-05-14T05:45:42.991Z,75.78
2023-05-14T05:46:43.045Z,77.71
2023-05-14T05:47:43.038Z,77.17
2023-05-14T05:48:42.965Z,75.74
2023-05-14T05:49:42.950Z,76.04
2023-05-14T05:50:42.945Z,75.43
2023-05-14T05:51:42.923Z,75.70
2023-05-14T05:52:42.912Z,75.60
2023-05-14T05:53:42.940Z,75.57
2023-05-14T05:54:42.902Z,75.84
2023-05-14T05:55:42.893Z,75.80
2023-05-14T05:56:42.897Z,72.65
2023-05-14T05:57:42.864Z,72.92
2023-05-14T05:58:42.858Z,73.13
2023-05-14T05:59:42.870Z,72.41
2023-05-14T06:00:42.837Z,69.67
2023-05-14T06:01:42.874Z,71.03
2023-05-14T06:02:43.035Z,71.64
2023-05-14T06:03:42.815Z,70.79
2023-05-14T06:04:42.809Z,71.57
2023-05-14T06:05:42.875Z,73.09
2023-05-14T06:06:42.772Z,73.06
2023-05-14T06:07:42.771Z,72.41
2023-05-14T06:08:42.767Z,71.97
2023-05-14T06:09:42.749Z,70.56
2023-05-14T06:10:42.732Z,69.34
2023-05-14T06:11:42.742Z,69.24
2023-05-14T06:12:42.718Z,70.93
2023-05-14T06:13:42.689Z,70.72
2023-05-14T06:14:42.685Z,70.69
2023-05-14T06:15:42.674Z,69.48
2023-05-14T06:16:42.766Z,69.85
2023-05-14T06:17:42.745Z,69.44
2023-05-14T06:18:42.675Z,68.40
2023-05-14T06:19:42.636Z,67.86
2023-05-14T06:20:42.639Z,68.26
2023-05-14T06:21:42.613Z,67.55
2023-05-14T06:22:42.610Z,67.52
2023-05-14T06:23:42.626Z,65.50
2023-05-14T06:24:42.594Z,67.12
2023-05-14T06:25:42.574Z,67.43
2023-05-14T06:26:42.564Z,67.43
2023-05-14T06:27:42.557Z,65.10
2023-05-14T06:28:42.557Z,66.82
2023-05-14T06:29:42.614Z,66.89
2023-05-14T06:30:42.520Z,64.67
2023-05-14T06:31:42.556Z,66.38
2023-05-14T06:32:42.544Z,66.28
2023-05-14T06:33:42.486Z,66.15
2023-05-14T06:34:42.483Z,64.84
2023-05-14T06:35:42.487Z,65.01
2023-05-14T06:36:42.467Z,62.68
2023-05-14T06:37:42.450Z,61.55
2023-05-14T06:38:42.441Z,62.79
2023-05-14T06:39:42.430Z,63.46
2023-05-14T06:40:42.440Z,63.33
2023-05-14T06:41:42.431Z,63.84
2023-05-14T06:42:42.392Z,63.64
2023-05-14T06:43:42.386Z,62.40
2023-05-14T06:44:42.373Z,62.40
2023-05-14T06:45:42.369Z,59.07
2023-05-14T06:46:42.361Z,57.76
2023-05-14T06:47:42.398Z,60.78
2023-05-14T06:48:42.389Z,61.69
2023-05-14T06:49:42.317Z,61.29
2023-05-14T06:50:42.314Z,59.27
2023-05-14T06:51:42.307Z,59.30
2023-05-14T06:52:42.285Z,61.79
2023-05-14T06:53:42.724Z,61.86
2023-05-14T06:54:42.279Z,60.25
2023-05-14T06:55:42.284Z,59.22
2023-05-14T06:56:42.251Z,60.42
2023-05-14T06:57:42.249Z,60.80
2023-05-14T06:58:42.238Z,59.66
2023-05-14T06:59:42.251Z,58.75
2023-05-14T07:00:42.215Z,59.76
2023-05-14T07:01:42.248Z,57.22
2023-05-14T07:02:42.207Z,56.41
2023-05-14T07:03:42.196Z,57.22
2023-05-14T07:04:42.321Z,54.91
2023-05-14T07:05:42.188Z,56.92
2023-05-14T07:06:42.173Z,56.82
2023-05-14T07:07:42.146Z,58.20
2023-05-14T07:08:42.148Z,57.59
2023-05-14T07:09:42.119Z,56.36
2023-05-14T07:10:42.120Z,55.43
2023-05-14T07:11:42.135Z,56.81
2023-05-14T07:12:42.096Z,55.30
2023-05-14T07:13:42.097Z,56.38
2023-05-14T07:14:42.069Z,55.38
2023-05-14T07:15:42.054Z,55.08
2023-05-14T07:16:42.082Z,53.17
2023-05-14T07:17:42.093Z,53.14
2023-05-14T07:18:42.063Z,53.55
2023-05-14T07:19:42.013Z,54.52
2023-05-14T07:20:42.003Z,53.02
2023-05-14T07:21:41.994Z,53.30
2023-05-14T07:22:41.995Z,52.09
2023-05-14T07:23:42.003Z,52.09
2023-05-14T07:24:41.966Z,52.37
2023-05-14T07:25:41.954Z,51.46
2023-05-14T07:26:41.942Z,53.67
2023-05-14T07:27:41.938Z,52.14
2023-05-14T07:28:41.928Z,50.94
2023-05-14T07:29:41.936Z,51.94
2023-05-14T07:30:41.906Z,51.57
2023-05-14T07:31:41.910Z,49.57
2023-05-14T07:32:41.892Z,50.37
2023-05-14T07:33:41.869Z,51.64
2023-05-14T07:34:41.855Z,50.54
2023-05-14T07:35:41.888Z,49.84
2023-05-14T07:36:41.830Z,50.72
2023-05-14T07:37:41.822Z,50.72
2023-05-14T07:38:41.828Z,50.52
2023-05-14T07:39:41.813Z,50.09
2023-05-14T07:40:41.802Z,51.27
2023-05-14T07:41:41.806Z,48.57
2023-05-14T07:42:41.767Z,46.07
2023-05-14T07:43:41.765Z,45.59
2023-05-14T07:44:41.749Z,49.32
2023-05-14T07:45:41.738Z,49.19
2023-05-14T07:46:41.730Z,48.60
2023-05-14T07:47:41.838Z,49.67
2023-05-14T07:48:41.775Z,50.57
2023-05-14T07:49:41.695Z,48.94
2023-05-14T07:50:41.691Z,49.15
2023-05-14T07:51:41.680Z,49.62
2023-05-14T07:52:41.673Z,50.20
2023-05-14T07:53:41.685Z,49.10
2023-05-14T07:54:41.655Z,48.40
2023-05-14T07:55:41.644Z,47.48
2023-05-14T07:56:41.637Z,47.26
2023-05-14T07:57:41.623Z,47.96
2023-05-14T07:58:41.627Z,48.16
2023-05-14T07:59:41.634Z,47.14
2023-05-14T08:00:41.587Z,43.99
2023-05-14T08:01:41.613Z,44.49
2023-05-14T08:02:41.625Z,46.78
2023-05-14T08:03:41.649Z,48.18
2023-05-14T08:04:41.550Z,47.26
2023-05-14T08:05:41.579Z,43.47
2023-05-14T08:06:41.529Z,45.09
2023-05-14T08:07:41.529Z,46.19
2023-05-14T08:08:41.516Z,45.78
2023-05-14T08:09:41.495Z,48.38
2023-05-14T08:10:41.497Z,48.28
2023-05-14T08:11:41.501Z,49.35
2023-05-14T08:12:41.468Z,49.13
2023-05-14T08:13:41.459Z,47.61
2023-05-14T08:14:41.448Z,43.55
2023-05-14T08:15:41.441Z,47.14
2023-05-14T08:16:41.455Z,47.53
2023-05-14T08:17:41.515Z,48.13
2023-05-14T08:18:41.422Z,47.71
2023-05-14T08:19:41.398Z,47.69
2023-05-14T08:20:41.394Z,46.27
2023-05-14T08:21:41.377Z,45.36
2023-05-14T08:22:41.400Z,46.15
2023-05-14T08:23:41.403Z,43.35
2023-05-14T08:24:41.348Z,45.14
2023-05-14T08:25:41.354Z,45.31
2023-05-14T08:26:41.329Z,45.68
2023-05-14T08:27:41.313Z,43.18
2023-05-14T08:28:41.295Z,43.36
2023-05-14T08:29:41.562Z,43.34
2023-05-14T08:30:41.313Z,43.64
2023-05-14T08:31:41.280Z,43.04
2023-05-14T08:32:41.300Z,42.55
2023-05-14T08:33:41.257Z,42.52
2023-05-14T08:34:42.808Z,42.13
2023-05-14T08:35:41.277Z,42.92
2023-05-14T08:36:41.216Z,41.16
2023-05-14T08:37:41.224Z,42.52
2023-05-14T08:38:41.191Z,39.95
2023-05-14T08:39:41.186Z,39.37
2023-05-14T08:40:41.184Z,42.57
2023-05-14T08:41:41.254Z,34.36
2023-05-14T08:42:41.171Z,34.81
2023-05-14T08:43:41.149Z,40.90
2023-05-14T08:44:41.124Z,43.16
2023-05-14T08:45:41.119Z,42.75
2023-05-14T08:46:41.107Z,39.95
2023-05-14T08:47:41.138Z,36.57
2023-05-14T08:48:41.123Z,38.95
2023-05-14T08:49:41.105Z,38.75
2023-05-14T08:50:41.068Z,39.33
2023-05-14T08:51:41.063Z,39.59
2023-05-14T08:52:41.042Z,39.67
2023-05-14T08:53:41.052Z,38.17
2023-05-14T08:54:41.012Z,38.44
2023-05-14T08:55:41.018Z,38.05
2023-05-14T08:56:41.005Z,37.34
2023-05-14T08:57:41.001Z,35.53
2023-05-14T08:58:40.985Z,35.06
2023-05-14T08:59:40.995Z,35.95
2023-05-14T09:00:40.961Z,37.12
2023-05-14T09:01:41.006Z,37.32
2023-05-14T09:02:41.078Z,36.33
2023-05-14T09:03:40.958Z,34.63
2023-05-14T09:04:40.920Z,34.92
2023-05-14T09:05:40.937Z,35.82
2023-05-14T09:06:40.898Z,34.64
2023-05-14T09:07:40.907Z,35.12
2023-05-14T09:08:40.884Z,35.11
2023-05-14T09:09:40.901Z,34.91
2023-05-14T09:10:40.863Z,35.09
2023-05-14T09:11:40.884Z,35.09
2023-05-14T09:12:40.858Z,35.86
2023-05-14T09:13:40.831Z,35.17
2023-05-14T09:14:40.822Z,34.67
2023-05-14T09:15:40.814Z,32.40
2023-05-14T09:16:40.820Z,33.70
2023-05-14T09:17:40.980Z,29.57
2023-05-14T09:18:40.863Z,31.05
2023-05-14T09:19:40.783Z,32.74
2023-05-14T09:20:40.769Z,35.08
2023-05-14T09:21:40.755Z,39.54
2023-05-14T09:22:40.751Z,39.64
2023-05-14T09:23:40.755Z,40.20
2023-05-14T09:24:40.732Z,38.56
2023-05-14T09:25:40.718Z,37.72
2023-05-14T09:26:40.696Z,36.60
2023-05-14T09:27:40.685Z,36.38
2023-05-14T09:28:40.675Z,35.37
2023-05-14T09:29:40.701Z,33.57
2023-05-14T09:30:40.664Z,30.10
2023-05-14T09:31:40.659Z,31.21
2023-05-14T09:32:40.694Z,33.29
2023-05-14T09:33:40.631Z,34.40
2023-05-14T09:34:40.618Z,34.68
2023-05-14T09:35:40.630Z,34.86
2023-05-14T09:36:40.600Z,33.73
2023-05-14T09:37:40.591Z,34.22
2023-05-14T09:38:40.581Z,32.93
2023-05-14T09:39:40.566Z,34.22
2023-05-14T09:40:40.551Z,33.90
2023-05-14T09:41:40.597Z,34.08
2023-05-14T09:42:40.541Z,32.68
2023-05-14T09:43:40.532Z,31.60
2023-05-14T09:44:40.511Z,32.18
2023-05-14T09:45:40.512Z,32.47
2023-05-14T09:46:40.498Z,31.50
2023-05-14T09:47:40.591Z,30.71
2023-05-14T09:48:40.531Z,30.79
2023-05-14T09:49:40.472Z,30.99
2023-05-14T09:50:40.452Z,30.20
2023-05-14T09:51:40.455Z,29.79
2023-05-14T09:52:40.432Z,29.30
2023-05-14T09:53:40.500Z,29.19
2023-05-14T09:54:40.411Z,30.55
2023-05-14T09:55:40.407Z,30.16
2023-05-14T09:56:40.400Z,29.85
2023-05-14T09:57:40.388Z,28.68
2023-05-14T09:58:40.379Z,29.09
2023-05-14T09:59:40.395Z,29.30
2023-05-14T10:00:40.354Z,31.37
2023-05-14T10:01:40.402Z,31.26
2023-05-14T10:02:40.387Z,31.24
2023-05-14T10:03:40.325Z,31.32
2023-05-14T10:04:40.380Z,30.63
2023-05-14T10:05:40.333Z,29.27
2023-05-14T10:06:40.291Z,29.85
2023-05-14T10:07:40.289Z,29.65
2023-05-14T10:08:40.280Z,30.44
2023-05-14T10:09:40.267Z,28.09
2023-05-14T10:10:40.262Z,30.15
2023-05-14T10:11:40.271Z,29.17
2023-05-14T10:12:40.248Z,29.85
2023-05-14T10:13:40.236Z,28.47
2023-05-14T10:14:40.223Z,26.10
2023-05-14T10:15:40.225Z,28.37
2023-05-14T10:16:40.231Z,28.10
2023-05-14T10:17:40.259Z,28.82
2023-05-14T10:18:40.230Z,28.83
2023-05-14T10:19:40.180Z,29.74
2023-05-14T10:20:40.163Z,30.40
2023-05-14T10:21:40.151Z,30.78
2023-05-14T10:22:40.139Z,31.35
2023-05-14T10:23:40.154Z,31.04
2023-05-14T10:24:40.114Z,30.06
2023-05-14T10:25:40.120Z,30.26
2023-05-14T10:26:40.104Z,28.08
2023-05-14T10:27:40.090Z,28.95
2023-05-14T10:28:40.082Z,28.55
2023-05-14T10:29:40.086Z,28.45
2023-05-14T10:30:40.052Z,28.85
2023-05-14T10:31:40.184Z,28.34
2023-05-14T10:32:40.051Z,29.03
2023-05-14T10:33:40.035Z,28.34
2023-05-14T10:34:40.015Z,27.96
2023-05-14T10:35:40.026Z,28.16
2023-05-14T10:36:39.991Z,28.34
2023-05-14T10:37:39.982Z,27.44
2023-05-14T10:38:39.983Z,27.43
2023-05-14T10:39:39.960Z,25.95
2023-05-14T10:40:39.951Z,26.84
2023-05-14T10:41:39.963Z,26.45
2023-05-14T10:42:39.940Z,27.12
2023-05-14T10:43:39.921Z,27.42
2023-05-14T10:44:39.914Z,26.92
2023-05-14T10:45:39.900Z,26.53
2023-05-14T10:46:39.944Z,26.63
2023-05-14T10:47:40.008Z,25.94
2023-05-14T10:48:39.878Z,27.33
2023-05-14T10:49:43.510Z,27.32
2023-05-14T10:50:39.877Z,27.42
2023-05-14T10:51:39.871Z,26.72
2023-05-14T10:52:39.836Z,26.52
2023-05-14T10:53:39.847Z,26.03
2023-05-14T10:54:39.859Z,25.52
2023-05-14T10:55:39.807Z,27.49
2023-05-14T10:56:39.792Z,26.41
2023-05-14T10:57:39.806Z,24.05
2023-05-14T10:58:39.782Z,24.15
2023-05-14T10:59:39.795Z,25.13
2023-05-14T11:00:39.757Z,25.23
2023-05-14T11:01:39.752Z,25.35
2023-05-14T11:02:39.781Z,25.95
2023-05-14T11:03:39.784Z,25.46
2023-05-14T11:04:39.729Z,25.99
2023-05-14T11:05:39.733Z,25.82
2023-05-14T11:06:39.707Z,27.22
2023-05-14T11:07:39.691Z,27.14
2023-05-14T11:08:39.723Z,26.96
2023-05-14T11:09:39.677Z,26.65
2023-05-14T11:10:39.671Z,26.77
2023-05-14T11:11:39.687Z,27.89
2023-05-14T11:12:39.643Z,28.30
2023-05-14T11:13:39.640Z,28.44
2023-05-14T11:14:39.625Z,28.75
2023-05-14T11:15:39.624Z,30.05
2023-05-14T11:16:39.608Z,30.26
2023-05-14T11:17:39.678Z,30.56
2023-05-14T11:18:39.610Z,31.67
2023-05-14T11:19:39.581Z,31.78
2023-05-14T11:20:39.564Z,32.87
2023-05-14T11:21:39.601Z,32.89
2023-05-14T11:22:39.538Z,32.81
2023-05-14T11:23:39.571Z,32.90
2023-05-14T11:24:39.535Z,33.50
2023-05-14T11:25:39.516Z,34.25
2023-05-14T11:26:39.566Z,33.64
2023-05-14T11:27:39.521Z,33.61
2023-05-14T11:28:39.480Z,33.57
2023-05-14T11:29:39.502Z,32.35
2023-05-14T11:30:39.458Z,32.12
2023-05-14T11:31:39.513Z,31.60
2023-05-14T11:32:39.499Z,29.71
2023-05-14T11:33:39.434Z,30.17
2023-05-14T11:34:39.424Z,28.30
2023-05-14T11:35:39.442Z,30.26
2023-05-14T11:36:39.404Z,29.57
2023-05-14T11:37:39.399Z,28.68
2023-05-14T11:38:39.389Z,29.17
2023-05-14T11:39:39.374Z,28.47
2023-05-14T11:40:39.382Z,28.17
2023-05-14T11:41:39.375Z,27.87
2023-05-14T11:42:39.348Z,27.28
2023-05-14T11:43:39.366Z,27.39
2023-05-14T11:44:39.316Z,28.77
2023-05-14T11:45:39.328Z,27.87
2023-05-14T11:46:39.351Z,26.99
2023-05-14T11:47:39.380Z,26.99
2023-05-14T11:48:39.279Z,26.99
2023-05-14T11:49:39.272Z,27.37
2023-05-14T11:50:39.257Z,27.08
2023-05-14T11:51:39.252Z,27.86
2023-05-14T11:52:39.233Z,27.47
2023-05-14T11:53:39.270Z,26.48
2023-05-14T11:54:39.230Z,25.89
2023-05-14T11:55:39.211Z,27.56
2023-05-14T11:56:39.199Z,28.14
2023-05-14T11:57:39.199Z,27.06
2023-05-14T11:58:39.189Z,26.98
2023-05-14T11:59:39.196Z,26.88
2023-05-14T12:00:39.165Z,24.52
2023-05-14T12:01:39.160Z,24.82
2023-05-14T12:02:39.255Z,24.63
2023-05-14T12:03:39.225Z,26.03
2023-05-14T12:04:39.194Z,26.23
2023-05-14T12:05:39.154Z,26.23
2023-05-14T12:06:39.099Z,25.63
2023-05-14T12:07:39.102Z,25.63
2023-05-14T12:08:39.083Z,25.93
2023-05-14T12:09:39.077Z,25.93
2023-05-14T12:10:39.058Z,26.03
2023-05-14T12:11:39.081Z,25.24
2023-05-14T12:12:39.048Z,26.62
2023-05-14T12:13:39.034Z,26.13
2023-05-14T12:14:39.022Z,26.12
2023-05-14T12:15:39.026Z,26.31
2023-05-14T12:16:39.068Z,24.65
2023-05-14T12:17:39.063Z,26.83
2023-05-14T12:18:39.128Z,26.42
2023-05-14T12:19:38.977Z,26.82
2023-05-14T12:20:38.969Z,26.23
2023-05-14T12:21:38.958Z,26.51
2023-05-14T12:22:38.953Z,27.48
2023-05-14T12:23:38.957Z,26.01
2023-05-14T12:24:38.930Z,27.47
2023-05-14T12:25:38.924Z,25.99
2023-05-14T12:26:38.911Z,25.99
2023-05-14T12:27:38.895Z,25.59
2023-05-14T12:28:38.918Z,25.18
2023-05-14T12:29:38.909Z,24.98
2023-05-14T12:30:38.866Z,25.77
2023-05-14T12:31:38.885Z,26.26
2023-05-14T12:32:38.879Z,26.36
2023-05-14T12:33:38.845Z,25.96
2023-05-14T12:34:38.831Z,27.15
2023-05-14T12:35:38.841Z,26.95
2023-05-14T12:36:38.797Z,26.36
2023-05-14T12:37:38.796Z,26.17
2023-05-14T12:38:38.785Z,27.04
2023-05-14T12:39:38.769Z,26.56
2023-05-14T12:40:38.772Z,26.26
2023-05-14T12:41:38.777Z,26.08
2023-05-14T12:42:38.747Z,25.60
2023-05-14T12:43:38.736Z,26.79
2023-05-14T12:44:38.725Z,25.60
2023-05-14T12:45:38.717Z,26.39
2023-05-14T12:46:38.734Z,25.99
2023-05-14T12:47:38.836Z,26.88
2023-05-14T12:48:38.699Z,26.29
2023-05-14T12:49:38.682Z,26.78
2023-05-14T12:50:38.665Z,27.17
2023-05-14T12:51:38.657Z,27.67
2023-05-14T12:52:39.948Z,27.86